Hays Regional Airport
KHYS : now visible

Airfield :











YOU CAN JOIN US ON...

 
LOGIN :

Register | Disclaimer

   EN    FR    IT 

 









Legend :    VFR   Marginal VFR   IFR   Intensive IFR   Very Intensive IFR
Visi :
Ceiling :
>= 8 km
>= 3000ft
5 to 8 km
1000 to 3000 ft
1500m to 5 km
500 to 1000 ft
800 to 1500m
200 to 500 ft
< 800m
< 200 ft
Symbols :   Thunderstorms  Fog  Heavy snow  Heavy precipitations  Wind > 20 kt






- Airport Elevation : 1999 ft


KHYS - Hays Regional

CURRENT METAR :
  • 281156Z AUTO 19005KT 10SM CLR M05/M06 A2975 RMK AO2 SLP091 6//// 7//// T10501061 11028 21067 58013 FZRANO $

EXPIRED METARs :
  • 281056Z AUTO 19007KT 10SM CLR M06/M07 A2977 RMK AO2 SLP097 T10561072 FZRANO $
  • 280956Z AUTO 19004KT 10SM CLR M05/M07 A2978 RMK AO2 SLP097 T10501072 FZRANO $

TAF KHYS
Valid from the 28 at 12:00 until the 29 at 12:00 UTC


281143Z 2812/2912 17008KT P6SM SKC
FM281900 18014KT P6SM SCT250
FM290100 14010KT P6SM BKN200
KZKC FIR / North America



MET'MAP, your aeronautical weather chart ! - Copyright ORBIFLY December 2007 - Disclaimer

ORBIFLY MET'MAP TEAM :

Programming & Development : Alexandra Zaïnal
Original concept : Baudouin d'Aumeries
Technical & hardware support : Manuel Goepfert
Assistance : Marc-Olivier Méhu




SOURCES & CREDITS :

   NOAA       Earth
Advisory